Time;durP1;ratioP1;P1;durP2;ratioP2;P2;SDS_P1;SDS_P2;PMS_P1;PMS_P2;Temp;Humidity;BMP_temperature;BMP_pressure;BME280_temperature;BME280_humidity;BME280_pressure;Samples;Min_cycle;Max_cycle;Signal;HPM_P1;HPM_P2
2022/11/17 00:01:04;;;;;;;11.50;9.00;;;;;;;2.89;86.02;98992.45;210280;1291;141037;-70
2022/11/17 00:06:08;;;;;;;12.00;9.90;;;;;;;2.91;85.87;98993.30;210451;1294;139605;-70
2022/11/17 00:11:12;;;;;;;12.90;9.30;;;;;;;2.90;85.72;98993.02;210662;1298;140137;-70
2022/11/17 00:16:18;;;;;;;9.70;7.40;;;;;;;2.89;85.76;98993.38;210428;1300;140964;-70
2022/11/17 00:21:25;;;;;;;11.30;9.20;;;;;;;2.93;85.70;98993.66;210194;1282;140584;-71
2022/11/17 00:26:32;;;;;;;13.70;9.90;;;;;;;2.93;85.69;98997.44;209763;1294;140488;-71
2022/11/17 00:36:58;;;;;;;15.20;9.80;;;;;;;2.92;85.67;98996.34;210528;1285;248179;-71
2022/11/17 00:42:02;;;;;;;13.80;10.50;;;;;;;2.96;85.66;98997.27;210425;1292;139732;-71
2022/11/17 00:47:05;;;;;;;14.70;10.10;;;;;;;2.98;85.54;98991.92;210362;1288;161036;-70
2022/11/17 00:52:09;;;;;;;26.30;9.70;;;;;;;2.98;85.41;98989.73;210396;1284;142337;-70
2022/11/17 00:57:13;;;;;;;11.80;10.20;;;;;;;2.99;85.42;98991.36;210224;1295;141507;-70
2022/11/17 01:02:17;;;;;;;15.40;10.60;;;;;;;2.98;85.29;98996.26;209965;1295;140840;-69
2022/11/17 01:07:21;;;;;;;12.80;9.10;;;;;;;2.96;85.16;98985.36;210689;1288;140992;-69
2022/11/17 01:12:25;;;;;;;13.90;11.20;;;;;;;2.94;85.13;98979.41;210550;1293;141008;-70
2022/11/17 01:17:29;;;;;;;18.60;10.20;;;;;;;2.91;85.10;98971.02;210397;1295;139904;-72
2022/11/17 01:22:32;;;;;;;15.30;10.90;;;;;;;2.90;85.09;98965.03;210232;1297;140576;-69
2022/11/17 01:27:36;;;;;;;12.40;9.70;;;;;;;2.90;84.88;98962.08;210409;1290;141070;-70
2022/11/17 01:32:40;;;;;;;15.30;10.80;;;;;;;2.90;85.12;98966.85;210392;1301;141059;-71
2022/11/17 01:37:43;;;;;;;12.60;8.90;;;;;;;2.87;84.98;98969.64;210291;1297;141910;-70
2022/11/17 01:42:47;;;;;;;12.70;10.40;;;;;;;2.87;85.06;98974.26;210156;1292;141219;-72
2022/11/17 01:47:57;;;;;;;13.40;10.50;;;;;;;2.87;85.08;98967.70;209509;1294;140372;-70
2022/11/17 01:53:16;;;;;;;13.20;11.20;;;;;;;2.89;84.92;98966.61;209838;1301;139939;-71
2022/11/17 01:58:30;;;;;;;11.70;9.10;;;;;;;2.90;85.00;98964.54;209920;1289;140802;-77
2022/11/17 02:03:35;;;;;;;14.10;10.00;;;;;;;2.93;84.67;98963.12;210317;1298;141038;-69
2022/11/17 02:08:43;;;;;;;11.90;9.20;;;;;;;2.93;84.68;98966.61;210526;1298;139606;-73
2022/11/17 02:13:53;;;;;;;12.70;10.00;;;;;;;2.94;84.70;98968.23;210145;1297;141952;-72
2022/11/17 02:18:56;;;;;;;11.60;9.00;;;;;;;2.91;84.47;98970.66;210309;1301;139733;-71
2022/11/17 02:24:37;;;;;;;12.20;9.40;;;;;;;2.93;84.62;98968.84;210263;1301;141835;-70
2022/11/17 02:29:56;;;;;;;8.70;7.80;;;;;;;2.92;84.17;98962.10;210421;1302;139881;-71
2022/11/17 02:35:08;;;;;;;;;;;;;;;2.87;84.20;98954.79;210329;1295;140109;-73
2022/11/17 02:40:37;;;;;;;7.40;6.50;;;;;;;2.85;84.51;98959.20;211056;1292;126471;-72
2022/11/17 02:46:15;;;;;;;7.50;6.60;;;;;;;2.83;84.12;98956.84;209828;1294;140430;-67
2022/11/17 02:51:22;;;;;;;6.10;5.40;;;;;;;2.79;84.13;98955.59;210329;1300;234957;-71
2022/11/17 02:56:25;;;;;;;5.90;4.80;;;;;;;2.78;84.00;98962.59;210437;1295;141236;-68
2022/11/17 03:02:04;;;;;;;6.20;4.80;;;;;;;2.82;84.08;98965.11;210222;1295;140168;-68
2022/11/17 03:07:37;;;;;;;6.20;5.60;;;;;;;2.85;83.93;98970.86;210414;1295;140873;-70
2022/11/17 03:12:51;;;;;;;8.50;5.70;;;;;;;2.83;84.01;98963.33;210537;1292;139380;-70
2022/11/17 03:18:12;;;;;;;6.60;5.50;;;;;;;2.86;84.00;98971.06;210634;1292;142064;-70
2022/11/17 03:23:23;;;;;;;7.10;6.40;;;;;;;2.88;83.86;98967.38;210698;1299;140829;-70
2022/11/17 03:28:31;;;;;;;8.80;6.90;;;;;;;2.88;83.84;98970.09;208343;1291;139092;-72
2022/11/17 03:33:38;;;;;;;9.00;5.20;;;;;;;2.84;83.57;98967.21;210503;1300;140341;-69
2022/11/17 03:38:57;;;;;;;8.80;6.40;;;;;;;2.83;83.50;98968.98;210441;1298;140182;-70
2022/11/17 03:44:04;;;;;;;7.10;6.10;;;;;;;2.83;83.74;98971.14;210680;1292;140226;-70
2022/11/17 03:49:19;;;;;;;6.40;5.80;;;;;;;2.80;83.82;98966.52;210426;1299;140733;-69
2022/11/17 03:54:23;;;;;;;7.60;5.60;;;;;;;2.72;83.22;98966.95;210538;1295;151085;-69
2022/11/17 03:59:31;;;;;;;5.60;5.10;;;;;;;2.66;83.12;98965.41;210604;1298;139895;-69
2022/11/17 04:09:58;;;;;;;6.60;5.10;;;;;;;2.52;82.69;98969.23;210520;1295;247238;-69
2022/11/17 04:20:25;;;;;;;5.00;4.30;;;;;;;2.43;82.74;98968.61;210589;1292;140545;-69
2022/11/17 04:30:57;;;;;;;4.30;3.90;;;;;;;2.44;82.79;98967.39;210451;1292;139984;-69
2022/11/17 04:36:01;;;;;;;5.60;4.70;;;;;;;2.45;82.60;98972.59;210518;1293;152776;-69
2022/11/17 04:46:31;;;;;;;4.60;4.20;;;;;;;2.42;82.48;98972.52;208212;1298;139819;-69
2022/11/17 04:51:36;;;;;;;4.80;4.30;;;;;;;2.32;82.18;98979.67;210403;1291;139446;-69
2022/11/17 04:56:40;;;;;;;6.50;5.00;;;;;;;2.28;82.27;98980.42;210475;1292;141741;-69
2022/11/17 05:01:44;;;;;;;7.40;4.80;;;;;;;2.22;82.01;98981.30;210375;1292;140203;-69
2022/11/17 05:06:48;;;;;;;5.40;4.40;;;;;;;2.17;82.08;98983.50;210447;1291;139875;-69
2022/11/17 05:17:15;;;;;;;7.60;5.60;;;;;;;2.10;82.00;98986.98;210296;1294;140226;-69
2022/11/17 05:27:45;;;;;;;8.00;5.10;;;;;;;2.02;81.93;98983.68;210435;1298;141639;-69
2022/11/17 05:32:48;;;;;;;6.60;4.60;;;;;;;2.00;81.99;98991.13;210421;1295;140374;-69
2022/11/17 05:37:52;;;;;;;6.70;5.30;;;;;;;1.98;82.09;98991.23;208853;1293;140425;-69
2022/11/17 05:42:56;;;;;;;7.20;6.40;;;;;;;1.94;81.85;98987.82;210389;1300;139393;-69
2022/11/17 05:48:00;;;;;;;6.10;4.90;;;;;;;1.92;81.68;98991.41;210338;1295;141358;-69
2022/11/17 05:53:03;;;;;;;11.10;7.10;;;;;;;1.87;81.82;98988.00;210357;1296;139584;-69
2022/11/17 05:58:25;;;;;;;6.60;5.20;;;;;;;1.86;81.99;98987.14;210498;1295;141431;-69
2022/11/17 06:03:37;;;;;;;6.60;5.90;;;;;;;1.87;81.77;98992.08;210525;1295;141920;-69
2022/11/17 06:08:41;;;;;;;8.20;5.80;;;;;;;1.89;81.66;98989.37;210505;1293;139707;-70
2022/11/17 06:13:45;;;;;;;5.50;4.40;;;;;;;1.90;81.82;98998.55;209880;1293;139538;-68
2022/11/17 06:19:03;;;;;;;5.60;5.10;;;;;;;1.88;81.45;99000.24;208874;1286;141240;-70
2022/11/17 06:24:08;;;;;;;4.60;4.20;;;;;;;1.84;81.66;99006.10;210516;1285;139433;-69
2022/11/17 06:29:13;;;;;;;7.20;5.30;;;;;;;1.82;81.55;98996.89;210155;1282;139526;-69
2022/11/17 06:34:17;;;;;;;6.50;5.50;;;;;;;1.83;81.29;98999.52;210393;1292;141311;-69
2022/11/17 06:39:21;;;;;;;8.20;5.80;;;;;;;1.80;81.16;99005.33;210479;1288;140037;-69
2022/11/17 06:44:26;;;;;;;9.50;5.10;;;;;;;1.82;81.13;99018.52;210707;1295;140181;-69
2022/11/17 06:49:31;;;;;;;9.10;5.50;;;;;;;1.81;80.99;99017.09;209924;1300;141671;-68
2022/11/17 06:54:35;;;;;;;7.30;5.20;;;;;;;1.79;81.15;99012.11;210692;1285;140030;-71
2022/11/17 06:59:39;;;;;;;5.90;4.60;;;;;;;1.82;81.07;99011.44;210395;1292;140291;-69
2022/11/17 07:04:42;;;;;;;4.50;4.10;;;;;;;1.92;80.68;99009.52;210350;1291;140922;-69
2022/11/17 07:09:46;;;;;;;5.10;4.00;;;;;;;1.97;80.71;99015.89;210555;1284;141117;-69
2022/11/17 07:14:49;;;;;;;5.70;4.50;;;;;;;1.94;80.69;99016.58;210787;1294;140149;-70
2022/11/17 07:19:53;;;;;;;5.00;3.60;;;;;;;1.96;80.48;99016.70;210578;1285;140421;-69
2022/11/17 07:24:57;;;;;;;6.20;5.00;;;;;;;1.96;80.62;99012.30;210610;1292;144044;-69
2022/11/17 07:30:02;;;;;;;7.10;5.40;;;;;;;1.95;80.67;99017.34;210437;1294;139482;-69
2022/11/17 07:35:06;;;;;;;6.40;5.70;;;;;;;1.97;80.31;99020.79;210229;1287;142527;-69
2022/11/17 07:40:10;;;;;;;6.90;5.60;;;;;;;1.97;80.35;99030.34;210767;1289;140464;-69
2022/11/17 07:45:14;;;;;;;8.80;6.10;;;;;;;1.95;80.38;99032.46;210651;1291;140999;-69
2022/11/17 07:50:20;;;;;;;4.90;4.40;;;;;;;1.94;80.29;99031.98;209422;1292;139486;-68
2022/11/17 07:55:24;;;;;;;8.00;6.10;;;;;;;1.91;80.05;99032.36;210419;1292;139086;-69
2022/11/17 08:00:32;;;;;;;8.90;4.20;;;;;;;1.93;80.24;99030.91;207289;1292;141786;-69
2022/11/17 08:05:38;;;;;;;;;;;;;;;1.93;80.12;99025.49;210052;1285;139420;-69
2022/11/17 08:10:46;;;;;;;6.60;5.20;;;;;;;1.84;79.89;99028.38;210734;1295;125479;-69
2022/11/17 08:15:56;;;;;;;5.10;4.50;;;;;;;1.85;79.97;99026.06;210297;1285;139646;-69
2022/11/17 08:21:05;;;;;;;6.80;4.80;;;;;;;1.92;79.77;99022.95;209817;1288;140310;-68
2022/11/17 08:26:11;;;;;;;6.00;5.40;;;;;;;2.00;79.85;99028.64;209311;1292;140341;-68
2022/11/17 08:31:15;;;;;;;5.50;4.00;;;;;;;2.03;79.39;99035.41;210636;1278;139478;-69
2022/11/17 08:36:19;;;;;;;4.10;3.50;;;;;;;2.09;79.53;99035.73;210331;1292;141698;-69
2022/11/17 08:41:24;;;;;;;5.20;4.10;;;;;;;2.16;79.20;99045.27;210329;1295;139918;-69
2022/11/17 08:46:28;;;;;;;4.40;3.60;;;;;;;2.20;78.93;99041.45;210561;1292;138864;-69
2022/11/17 08:51:33;;;;;;;4.70;4.30;;;;;;;2.28;78.76;99048.11;210708;1285;142388;-69
2022/11/17 08:56:37;;;;;;;5.80;4.50;;;;;;;2.30;78.53;99050.63;210448;1289;140391;-69
2022/11/17 09:01:41;;;;;;;8.20;3.70;;;;;;;2.31;78.18;99046.83;209642;1295;139420;-69
2022/11/17 09:06:47;;;;;;;4.80;3.80;;;;;;;2.37;78.24;99045.76;210471;1293;140934;-69
2022/11/17 09:11:50;;;;;;;6.10;4.60;;;;;;;2.39;78.32;99045.15;210560;1292;139704;-69
2022/11/17 09:16:54;;;;;;;4.50;4.10;;;;;;;2.44;77.90;99044.19;210311;1295;140863;-69
2022/11/17 09:21:58;;;;;;;4.20;3.30;;;;;;;2.40;77.76;99038.48;210590;1291;140036;-69
2022/11/17 09:27:02;;;;;;;4.90;4.50;;;;;;;2.35;77.72;99039.52;210735;1291;142719;-69
2022/11/17 09:32:07;;;;;;;5.80;4.30;;;;;;;2.41;77.87;99049.77;210736;1292;139164;-69
2022/11/17 09:37:11;;;;;;;5.20;4.60;;;;;;;2.41;77.31;99048.56;210429;1291;141288;-70
2022/11/17 09:42:17;;;;;;;4.70;3.20;;;;;;;2.38;77.24;99042.31;210557;1282;140969;-69
2022/11/17 09:47:42;;;;;;;5.90;4.50;;;;;;;2.44;77.33;99039.73;210487;1284;140627;-69
2022/11/17 09:53:21;;;;;;;4.50;4.10;;;;;;;2.52;77.00;99040.06;210642;1292;141967;-69
2022/11/17 09:58:24;;;;;;;3.70;3.40;;;;;;;2.56;76.83;99035.30;210484;1290;248366;-69
2022/11/17 10:03:34;;;;;;;4.30;3.90;;;;;;;2.55;76.90;99033.80;210482;1290;139904;-69
2022/11/17 10:09:00;;;;;;;5.60;4.50;;;;;;;2.55;76.73;99032.10;209676;1296;140049;-69
2022/11/17 10:14:07;;;;;;;5.90;5.30;;;;;;;2.54;76.50;99027.69;210684;1293;140336;-69
2022/11/17 10:19:16;;;;;;;5.20;4.00;;;;;;;2.43;76.25;99030.63;210621;1293;139376;-70
2022/11/17 10:24:49;;;;;;;4.90;4.20;;;;;;;2.36;76.26;99033.73;209952;1292;139669;-68
2022/11/17 10:30:01;;;;;;;4.90;4.10;;;;;;;2.29;76.22;99030.92;208963;1297;140653;-69
2022/11/17 10:35:46;;;;;;;9.90;5.50;;;;;;;2.18;75.76;99028.09;210637;1295;140308;-69
2022/11/17 10:40:52;;;;;;;12.20;5.40;;;;;;;2.14;76.22;99026.66;210113;1300;140412;-68
2022/11/17 10:45:58;;;;;;;5.00;4.50;;;;;;;2.10;76.25;99024.08;210435;1295;140080;-69
2022/11/17 10:51:25;;;;;;;6.10;5.00;;;;;;;2.05;76.02;99020.46;209977;1291;141630;-69
2022/11/17 10:56:30;;;;;;;7.70;4.80;;;;;;;2.08;76.46;99015.66;209915;1298;140780;-69
2022/11/17 11:01:37;;;;;;;7.20;4.60;;;;;;;2.15;76.51;99017.56;210551;1292;138865;-70
2022/11/17 11:06:41;;;;;;;6.50;5.80;;;;;;;2.24;76.69;99017.06;210579;1292;139429;-70
2022/11/17 11:11:47;;;;;;;7.20;4.70;;;;;;;2.34;76.35;99021.02;210547;1284;140709;-71
2022/11/17 11:16:53;;;;;;;5.20;4.70;;;;;;;2.39;76.42;99014.77;210439;1292;140725;-69
2022/11/17 11:21:59;;;;;;;6.80;4.70;;;;;;;2.45;75.80;99016.66;210283;1294;139419;-69
2022/11/17 11:27:34;;;;;;;5.30;4.80;;;;;;;2.33;75.50;99016.60;210585;1292;149225;-70
2022/11/17 11:33:03;;;;;;;4.00;3.30;;;;;;;2.20;75.41;99019.68;210744;1291;140178;-69
2022/11/17 11:38:35;;;;;;;5.60;3.60;;;;;;;2.12;75.23;99018.13;210456;1295;140354;-69
2022/11/17 11:44:05;;;;;;;5.10;4.60;;;;;;;1.96;74.90;99024.17;210550;1298;139437;-69
2022/11/17 11:49:30;;;;;;;7.50;5.10;;;;;;;1.85;75.01;99021.91;210558;1286;140158;-69
2022/11/17 11:54:45;;;;;;;5.60;4.30;;;;;;;1.87;75.37;99015.77;208773;1278;140355;-68
2022/11/17 12:00:15;;;;;;;5.50;4.60;;;;;;;1.92;75.50;99018.38;210549;1294;139791;-69
2022/11/17 12:05:33;;;;;;;4.50;4.10;;;;;;;1.87;74.95;99025.10;208864;1292;142063;-68
2022/11/17 12:11:58;;;;;;;8.10;5.30;;;;;;;1.75;74.65;99019.45;210689;1292;139967;-69
2022/11/17 12:23:46;;;;;;;6.90;5.00;;;;;;;1.49;74.87;99014.14;210148;1292;363581;-69
2022/11/17 13:09:10;;;;;;;5.80;3.60;;;;;;;1.14;75.78;99002.38;210236;1284;377391;-69
2022/11/17 13:14:15;;;;;;;6.20;5.60;;;;;;;1.16;75.38;99000.16;210532;1295;139678;-69
2022/11/17 13:19:36;;;;;;;9.30;6.50;;;;;;;1.13;75.56;99003.87;210363;1294;139643;-69
2022/11/17 13:24:43;;;;;;;6.00;5.20;;;;;;;1.07;75.51;99006.66;210534;1295;139754;-69
2022/11/17 13:29:48;;;;;;;7.00;5.20;;;;;;;1.13;75.64;99005.23;210411;1296;139696;-69
2022/11/17 13:34:56;;;;;;;7.90;5.40;;;;;;;1.16;75.50;99000.50;209161;1297;140147;-68
2022/11/17 13:40:18;;;;;;;6.80;5.30;;;;;;;1.14;75.29;98994.80;210364;1294;140870;-69
2022/11/17 13:45:44;;;;;;;9.80;5.80;;;;;;;1.08;75.39;98992.33;210515;1301;141572;-68
2022/11/17 13:50:49;;;;;;;10.80;7.40;;;;;;;1.10;75.23;98990.20;210061;1296;141586;-69
2022/11/17 13:55:53;;;;;;;8.60;6.50;;;;;;;1.12;75.55;98993.61;209783;1301;140614;-70
2022/11/17 14:00:57;;;;;;;7.60;6.00;;;;;;;1.12;75.37;98996.96;209692;1291;139542;-68
2022/11/17 14:06:04;;;;;;;8.30;7.00;;;;;;;1.07;75.28;99006.36;209552;1295;140079;-68
2022/11/17 14:11:15;;;;;;;8.50;6.60;;;;;;;1.03;75.11;99004.59;209605;1293;141221;-70
2022/11/17 14:16:22;;;;;;;7.50;6.00;;;;;;;1.00;75.28;99000.58;209102;1306;139831;-68
2022/11/17 14:21:26;;;;;;;8.80;6.80;;;;;;;0.95;75.19;98997.35;209866;1298;141112;-70
2022/11/17 14:26:31;;;;;;;10.40;7.40;;;;;;;0.90;75.22;98995.88;209109;1298;139878;-68
2022/11/17 14:31:34;;;;;;;10.30;9.20;;;;;;;0.88;75.18;98996.11;210126;1294;139908;-70
2022/11/17 14:36:39;;;;;;;12.00;7.70;;;;;;;0.86;75.24;98997.23;210142;1294;139853;-69
2022/11/17 14:41:43;;;;;;;14.60;8.70;;;;;;;0.89;75.62;98998.02;210096;1294;141885;-69
2022/11/17 14:46:47;;;;;;;8.40;7.50;;;;;;;0.90;75.39;98992.48;209973;1298;140806;-69
2022/11/17 14:51:54;;;;;;;8.30;6.40;;;;;;;0.89;75.43;98994.59;210354;1295;139602;-68
2022/11/17 14:56:58;;;;;;;6.40;5.20;;;;;;;0.89;75.45;98995.77;210125;1295;140266;-67
2022/11/17 15:02:04;;;;;;;11.20;7.30;;;;;;;0.90;75.09;98996.00;210142;1287;139477;-71
2022/11/17 15:07:10;;;;;;;8.40;7.50;;;;;;;0.87;75.00;98993.77;210282;1294;141520;-69
2022/11/17 15:12:16;;;;;;;;;;;;;;;0.87;75.27;98991.91;210412;1295;141632;-74
2022/11/17 15:17:22;;;;;;;9.00;6.60;;;;;;;0.81;74.85;98990.88;211006;1290;125842;-72
2022/11/17 15:22:27;;;;;;;8.90;7.60;;;;;;;0.80;75.16;98980.90;210362;1295;139851;-70
2022/11/17 15:27:37;;;;;;;10.10;7.10;;;;;;;0.82;75.08;98972.92;210325;1295;140967;-71
2022/11/17 15:32:42;;;;;;;9.60;7.20;;;;;;;0.85;75.23;98968.80;210426;1295;139810;-71
2022/11/17 15:37:48;;;;;;;10.50;8.20;;;;;;;0.83;74.98;98966.88;210372;1300;139556;-71
2022/11/17 15:42:53;;;;;;;10.30;8.30;;;;;;;0.80;75.53;98964.96;210121;1295;141394;-73
2022/11/17 15:47:58;;;;;;;13.30;8.60;;;;;;;0.80;74.86;98966.14;210263;1291;140053;-70
2022/11/17 15:53:06;;;;;;;14.90;10.20;;;;;;;0.84;75.10;98964.39;210194;1300;140789;-71
2022/11/17 15:58:13;;;;;;;16.90;10.90;;;;;;;0.85;75.23;98964.12;207559;1285;141976;-73
2022/11/17 16:03:25;;;;;;;16.70;10.20;;;;;;;0.85;75.33;98956.81;209624;1288;140631;-70
2022/11/17 16:08:33;;;;;;;16.70;10.30;;;;;;;0.84;75.29;98952.20;210412;1277;140261;-72
2022/11/17 16:13:41;;;;;;;10.50;8.20;;;;;;;0.87;74.95;98952.27;210286;1298;140165;-72
2022/11/17 16:18:47;;;;;;;18.80;10.10;;;;;;;0.82;74.92;98944.92;209357;1278;139372;-71
2022/11/17 16:23:54;;;;;;;17.40;9.70;;;;;;;0.74;74.60;98936.77;210211;1295;140422;-70
2022/11/17 16:29:06;;;;;;;13.30;8.80;;;;;;;0.62;74.70;98933.23;210507;1301;210392;-70
2022/11/17 16:34:18;;;;;;;13.40;7.10;;;;;;;0.61;74.68;98941.09;210295;1295;140498;-69
2022/11/17 16:39:25;;;;;;;12.40;8.90;;;;;;;0.56;75.05;98934.77;210258;1286;139755;-69
2022/11/17 16:44:33;;;;;;;13.60;9.20;;;;;;;0.50;74.97;98929.66;210307;1296;141469;-68
2022/11/17 16:49:42;;;;;;;14.80;8.90;;;;;;;0.48;75.11;98928.52;210059;1292;141672;-69
2022/11/17 16:54:56;;;;;;;11.90;9.90;;;;;;;0.42;74.74;98932.73;210493;1295;138995;-67
2022/11/17 17:00:08;;;;;;;12.00;9.20;;;;;;;0.40;75.01;98933.27;210461;1290;140075;-66
2022/11/17 17:05:15;;;;;;;16.90;9.20;;;;;;;0.37;75.06;98935.19;210339;1298;141809;-71
2022/11/17 17:10:21;;;;;;;10.30;8.50;;;;;;;0.31;74.69;98931.47;210395;1295;140306;-71
2022/11/17 17:15:28;;;;;;;11.00;8.50;;;;;;;0.29;74.67;98928.45;209466;1300;1028400;-71
2022/11/17 17:20:35;;;;;;;14.20;9.60;;;;;;;0.30;74.91;98925.83;210349;1302;140515;-71
2022/11/17 17:25:40;;;;;;;9.60;6.90;;;;;;;0.29;74.99;98924.63;210325;1295;139743;-73
2022/11/17 17:30:52;;;;;;;;;;;;;;;0.28;74.84;98927.67;210392;1295;220281;-68
2022/11/17 17:36:16;;;;;;;14.20;10.10;;;;;;;0.29;75.15;98933.13;210957;1296;126664;-67
2022/11/17 17:41:24;;;;;;;13.10;10.40;;;;;;;0.30;74.82;98933.02;210286;1292;140369;-69
2022/11/17 17:46:38;;;;;;;12.30;8.50;;;;;;;0.31;74.66;98934.50;210337;1291;140987;-70
2022/11/17 17:51:46;;;;;;;15.30;9.60;;;;;;;0.24;74.61;98933.64;210261;1291;140841;-67
2022/11/17 17:56:55;;;;;;;14.80;9.10;;;;;;;0.18;74.75;98929.76;210381;1302;141910;-69
2022/11/17 18:01:59;;;;;;;17.00;11.60;;;;;;;0.08;74.43;98930.58;210233;1292;140641;-68
2022/11/17 18:07:04;;;;;;;14.80;10.70;;;;;;;-0.02;74.83;98943.27;210262;1298;140717;-68
2022/11/17 18:12:09;;;;;;;20.10;11.70;;;;;;;-0.05;74.81;98956.55;209704;1288;141567;-68
2022/11/17 18:17:14;;;;;;;14.50;11.70;;;;;;;-0.01;74.94;98956.78;210078;1295;141666;-69
2022/11/17 18:22:18;;;;;;;15.60;11.10;;;;;;;0.04;75.05;98952.27;207876;1292;141862;-68
2022/11/17 18:27:22;;;;;;;18.60;12.30;;;;;;;0.05;75.23;98956.51;210417;1295;141107;-70
2022/11/17 18:32:27;;;;;;;16.50;12.70;;;;;;;0.06;75.00;98960.75;209903;1300;140769;-70
2022/11/17 18:37:31;;;;;;;15.80;12.60;;;;;;;0.04;75.24;98958.47;210101;1292;139273;-68
2022/11/17 18:42:34;;;;;;;17.60;12.00;;;;;;;-0.00;74.94;98963.27;210307;1288;140219;-69
2022/11/17 18:47:39;;;;;;;19.00;12.10;;;;;;;0.01;74.85;98961.70;208937;1301;140153;-72
2022/11/17 18:52:43;;;;;;;18.50;11.40;;;;;;;0.01;74.78;98962.15;210279;1299;141195;-73
2022/11/17 18:57:48;;;;;;;20.10;11.80;;;;;;;-0.00;74.86;98958.92;210355;1301;140325;-72
2022/11/17 19:02:52;;;;;;;21.30;12.60;;;;;;;0.01;75.16;98953.72;210280;1301;140157;-68
2022/11/17 19:07:56;;;;;;;24.20;12.30;;;;;;;0.01;75.16;98951.62;210244;1293;140218;-70
2022/11/17 19:13:00;;;;;;;20.00;13.50;;;;;;;-0.02;74.87;98955.95;210120;1300;140489;-68
2022/11/17 19:18:05;;;;;;;20.30;13.50;;;;;;;0.03;74.87;98951.92;210055;1302;141685;-69
2022/11/17 19:23:10;;;;;;;15.60;11.20;;;;;;;0.08;75.09;98943.84;210077;1295;140577;-69
2022/11/17 19:28:15;;;;;;;15.40;11.10;;;;;;;0.09;74.86;98939.69;210154;1301;139971;-69
2022/11/17 19:33:19;;;;;;;19.00;11.60;;;;;;;0.07;74.95;98936.92;210234;1294;140351;-69
2022/11/17 19:38:24;;;;;;;15.80;11.90;;;;;;;0.06;74.76;98937.11;210073;1301;140438;-69
2022/11/17 19:43:29;;;;;;;19.40;12.70;;;;;;;0.07;74.91;98931.81;210075;1295;140196;-68
2022/11/17 19:48:39;;;;;;;19.90;12.30;;;;;;;0.16;75.14;98927.76;210122;1301;143429;-70
2022/11/17 19:53:45;;;;;;;18.00;12.10;;;;;;;0.22;75.15;98926.45;209550;1298;142476;-66
2022/11/17 19:58:50;;;;;;;18.10;12.90;;;;;;;0.23;74.41;98917.50;209970;1295;140280;-69
2022/11/17 20:03:58;;;;;;;19.20;13.60;;;;;;;0.19;74.33;98910.98;207762;1295;140804;-67
2022/11/17 20:09:11;;;;;;;14.50;9.60;;;;;;;0.14;74.89;98904.83;210166;1294;141013;-66
2022/11/17 20:14:16;;;;;;;21.50;15.50;;;;;;;0.01;74.13;98902.77;210375;1295;140490;-67
2022/11/17 20:19:21;;;;;;;20.10;13.50;;;;;;;-0.08;74.63;98891.30;210181;1301;140408;-72
2022/11/17 20:24:27;;;;;;;20.40;13.50;;;;;;;-0.16;74.73;98884.73;208384;1289;142531;-67
2022/11/17 20:29:32;;;;;;;17.80;12.20;;;;;;;-0.31;74.67;98882.77;210129;1296;162199;-69
2022/11/17 20:34:45;;;;;;;18.30;10.70;;;;;;;-0.45;74.66;98876.24;209319;1292;141802;-68
2022/11/17 20:39:50;;;;;;;22.30;13.20;;;;;;;-0.52;75.05;98876.45;210450;1301;140604;-72
2022/11/17 20:44:54;;;;;;;20.50;14.30;;;;;;;-0.47;74.87;98876.83;210381;1295;140252;-69
2022/11/17 20:49:58;;;;;;;17.00;11.10;;;;;;;-0.42;75.00;98869.92;210344;1291;140113;-65
2022/11/17 20:55:02;;;;;;;18.00;12.00;;;;;;;-0.45;75.05;98858.89;210261;1301;140895;-72
2022/11/17 21:00:07;;;;;;;21.90;12.30;;;;;;;-0.45;75.04;98858.08;210226;1295;140995;-68
2022/11/17 21:05:12;;;;;;;16.50;10.10;;;;;;;-0.43;74.77;98866.65;210038;1293;141076;-69
2022/11/17 21:10:16;;;;;;;21.70;12.80;;;;;;;-0.41;75.00;98863.13;210178;1298;141734;-66
2022/11/17 21:15:20;;;;;;;19.70;11.20;;;;;;;-0.39;74.85;98864.44;210257;1298;141178;-68
2022/11/17 21:20:27;;;;;;;20.40;12.70;;;;;;;-0.36;74.89;98858.48;210295;1301;140819;-65
2022/11/17 21:25:31;;;;;;;16.40;12.50;;;;;;;-0.37;75.03;98857.21;210248;1295;140425;-67
2022/11/17 21:30:35;;;;;;;19.80;13.90;;;;;;;-0.42;74.57;98856.23;210174;1302;141617;-67
2022/11/17 21:35:39;;;;;;;21.00;12.70;;;;;;;-0.47;74.81;98848.48;210253;1294;140129;-68
2022/11/17 21:40:42;;;;;;;20.10;12.30;;;;;;;-0.49;74.54;98840.16;209768;1293;140811;-66
2022/11/17 21:45:46;;;;;;;20.90;16.10;;;;;;;-0.45;74.70;98833.31;210431;1290;140272;-66
2022/11/17 21:50:49;;;;;;;21.30;12.60;;;;;;;-0.52;74.86;98830.81;209926;1294;141425;-68
2022/11/17 21:56:00;;;;;;;23.30;15.80;;;;;;;-0.56;74.95;98832.83;210297;1295;140513;-66
2022/11/17 22:01:08;;;;;;;16.50;12.40;;;;;;;-0.52;74.86;98831.98;210375;1294;140533;-73
2022/11/17 22:06:17;;;;;;;21.00;14.50;;;;;;;-0.55;74.43;98823.89;210145;1295;141064;-69
2022/11/17 22:11:36;;;;;;;17.50;12.50;;;;;;;-0.61;74.67;98828.19;209261;1287;141016;-67
2022/11/17 22:16:47;;;;;;;21.10;14.00;;;;;;;-0.58;74.71;98835.02;208306;1295;141283;-67
2022/11/17 22:21:52;;;;;;;19.70;12.60;;;;;;;-0.50;74.73;98830.85;210493;1301;151553;-71
2022/11/17 22:26:56;;;;;;;18.10;13.50;;;;;;;-0.50;74.74;98819.96;209457;1298;140449;-66
2022/11/17 22:31:59;;;;;;;19.30;14.20;;;;;;;-0.48;74.64;98817.86;210207;1295;139928;-65
2022/11/17 22:37:03;;;;;;;24.20;15.30;;;;;;;-0.38;74.90;98817.39;210169;1295;140238;-72
2022/11/17 22:42:07;;;;;;;22.00;14.80;;;;;;;-0.26;74.68;98816.88;210223;1291;140960;-68
2022/11/17 22:47:11;;;;;;;24.20;15.90;;;;;;;-0.25;74.49;98813.36;210214;1285;140043;-70
2022/11/17 22:52:17;;;;;;;20.20;13.20;;;;;;;-0.35;74.30;98805.67;210142;1295;141565;-68
2022/11/17 22:57:21;;;;;;;21.60;12.90;;;;;;;-0.38;74.41;98804.84;210274;1295;140606;-70
2022/11/17 23:02:25;;;;;;;23.10;15.40;;;;;;;-0.45;74.30;98806.33;210170;1294;140301;-68
2022/11/17 23:07:29;;;;;;;18.00;11.80;;;;;;;-0.45;74.62;98807.09;210314;1277;140875;-67
2022/11/17 23:12:33;;;;;;;19.80;13.50;;;;;;;-0.42;74.72;98801.00;210340;1295;140498;-68
2022/11/17 23:17:37;;;;;;;21.70;16.60;;;;;;;-0.34;74.17;98796.48;210377;1291;139367;-67
2022/11/17 23:22:40;;;;;;;21.40;13.20;;;;;;;-0.27;74.43;98798.75;210149;1295;140602;-68
2022/11/17 23:27:44;;;;;;;24.60;14.80;;;;;;;-0.30;74.05;98795.73;210282;1291;141451;-69
2022/11/17 23:32:47;;;;;;;16.80;11.10;;;;;;;-0.35;74.16;98791.92;210091;1295;142194;-68
2022/11/17 23:37:51;;;;;;;21.40;13.90;;;;;;;-0.46;73.89;98792.90;210430;1298;141940;-70
2022/11/17 23:42:55;;;;;;;24.40;16.40;;;;;;;-0.47;74.09;98781.70;210393;1294;139980;-69
2022/11/17 23:47:58;;;;;;;21.10;15.10;;;;;;;-0.47;73.90;98773.08;210098;1294;140882;-69
2022/11/17 23:53:02;;;;;;;19.50;13.60;;;;;;;-0.54;73.85;98776.59;210202;1301;140614;-69
2022/11/17 23:58:05;;;;;;;17.90;13.80;;;;;;;-0.59;73.79;98769.94;208771;1295;140461;-68
